Time;durP1;ratioP1;P1;durP2;ratioP2;P2;SDS_P1;SDS_P2;PMS_P1;PMS_P2;Temp;Humidity;BMP_temperature;BMP_pressure;BME280_temperature;BME280_humidity;BME280_pressure;Samples;Min_cycle;Max_cycle;Signal;HPM_P1;HPM_P2
2021/08/30 00:02:02;;;;;;;4.20;3.77;;;;;;;;;;4975141;28;20558;-72
2021/08/30 00:05:07;;;;;;;5.07;4.57;;;;;;;;;;4975633;28;20661;-72
2021/08/30 00:08:12;;;;;;;5.47;3.70;;;;;;;;;;4974228;28;20661;-72
2021/08/30 00:11:18;;;;;;;4.50;4.03;;;;;;;;;;4974408;28;20226;-72
2021/08/30 00:14:22;;;;;;;7.83;4.80;;;;;;;;;;4971522;28;20183;-72
2021/08/30 00:17:26;;;;;;;4.33;3.87;;;;;;;;;;4973963;28;20191;-73
2021/08/30 00:20:30;;;;;;;4.87;4.37;;;;;;;;;;4974129;28;20519;-73
2021/08/30 00:23:34;;;;;;;6.07;4.70;;;;;;;;;;4975224;28;20179;-73
2021/08/30 00:26:38;;;;;;;6.00;4.20;;;;;;;;;;4974768;28;20222;-73
2021/08/30 00:29:42;;;;;;;4.10;3.43;;;;;;;;;;4973906;28;20190;-73
2021/08/30 00:32:46;;;;;;;3.03;2.70;;;;;;;;;;4974761;28;20650;-73
2021/08/30 00:35:50;;;;;;;3.00;2.70;;;;;;;;;;4974980;28;20634;-73
2021/08/30 00:38:55;;;;;;;3.33;2.53;;;;;;;;;;4965205;28;20205;-73
2021/08/30 00:41:59;;;;;;;2.80;2.00;;;;;;;;;;4973810;28;20226;-73
2021/08/30 00:45:09;;;;;;;2.57;2.00;;;;;;;;;;4970630;28;20191;-73
2021/08/30 00:48:14;;;;;;;2.20;2.00;;;;;;;;;;4973537;28;20223;-72
2021/08/30 00:51:20;;;;;;;4.17;2.90;;;;;;;;;;4974580;28;20558;-72
2021/08/30 00:54:26;;;;;;;3.30;2.90;;;;;;;;;;4974667;28;20187;-73
2021/08/30 00:57:30;;;;;;;4.73;3.50;;;;;;;;;;4974368;28;20190;-73
2021/08/30 01:00:34;;;;;;;3.90;3.50;;;;;;;;;;4958207;28;20206;-72
2021/08/30 01:03:39;;;;;;;4.60;3.63;;;;;;;;;;4944376;28;20540;-72
2021/08/30 01:07:00;;;;;;;4.73;3.67;;;;;;;;;;4964623;28;20214;-73
2021/08/30 01:10:10;;;;;;;3.90;3.33;;;;;;;;;;4974240;28;20187;-73
2021/08/30 01:13:31;;;;;;;3.40;3.10;;;;;;;;;;4964095;28;20198;-73
2021/08/30 01:16:37;;;;;;;3.70;3.10;;;;;;;;;;4974700;28;20187;-73
2021/08/30 01:19:51;;;;;;;8.60;3.53;;;;;;;;;;4973993;28;20198;-72
2021/08/30 01:22:57;;;;;;;4.90;4.23;;;;;;;;;;4973440;28;20646;-73
2021/08/30 01:26:03;;;;;;;4.30;3.60;;;;;;;;;;4974281;28;20187;-72
2021/08/30 01:29:17;;;;;;;4.57;4.07;;;;;;;;;;4973578;28;20539;-73
2021/08/30 01:32:47;;;;;;;5.07;3.97;;;;;;;;;;4959304;28;20219;-73
2021/08/30 01:35:52;;;;;;;4.63;4.00;;;;;;;;;;4955657;28;20180;-73
2021/08/30 01:38:59;;;;;;;3.97;3.57;;;;;;;;;;4968810;28;20206;-73
2021/08/30 01:42:04;;;;;;;5.43;3.97;;;;;;;;;;4955197;28;20231;-73
2021/08/30 01:45:12;;;;;;;3.50;3.07;;;;;;;;;;4957251;28;20207;-73
2021/08/30 01:48:18;;;;;;;5.17;2.70;;;;;;;;;;4970409;28;20210;-73
2021/08/30 01:51:25;;;;;;;3.57;2.90;;;;;;;;;;4977267;28;20693;-73
2021/08/30 01:54:29;;;;;;;4.50;3.10;;;;;;;;;;4957861;29;20195;-73
2021/08/30 01:57:54;;;;;;;3.87;2.67;;;;;;;;;;4970964;28;20191;-73
2021/08/30 02:00:59;;;;;;;4.00;3.10;;;;;;;;;;4977530;28;20227;-73
2021/08/30 02:04:04;;;;;;;6.53;2.80;;;;;;;;;;4977556;28;20203;-73
2021/08/30 02:07:08;;;;;;;3.20;2.40;;;;;;;;;;4975093;28;20214;-73
2021/08/30 02:10:12;;;;;;;3.23;2.50;;;;;;;;;;4972491;28;20645;-73
2021/08/30 02:13:17;;;;;;;4.70;2.50;;;;;;;;;;4975900;28;20179;-73
2021/08/30 02:16:21;;;;;;;3.40;2.40;;;;;;;;;;4976249;28;20646;-72
2021/08/30 02:19:42;;;;;;;1.67;1.47;;;;;;;;;;4974869;28;20191;-73
2021/08/30 02:22:48;;;;;;;5.47;1.80;;;;;;;;;;4975171;28;20191;-72
2021/08/30 02:25:55;;;;;;;2.27;1.60;;;;;;;;;;4976422;28;20634;-72
2021/08/30 02:29:02;;;;;;;2.53;1.20;;;;;;;;;;4975749;28;20187;-73
2021/08/30 02:32:07;;;;;;;1.53;1.10;;;;;;;;;;4975633;28;20226;-73
2021/08/30 02:35:15;;;;;;;1.67;1.37;;;;;;;;;;4975801;28;20190;-73
2021/08/30 02:38:19;;;;;;;2.23;0.97;;;;;;;;;;4975512;28;20187;-73
2021/08/30 02:41:26;;;;;;;0.70;0.70;;;;;;;;;;4969125;28;20226;-73
2021/08/30 02:44:30;;;;;;;1.00;0.77;;;;;;;;;;4976241;28;20195;-72
2021/08/30 02:47:36;;;;;;;2.37;1.03;;;;;;;;;;4968786;28;20203;-73
2021/08/30 02:50:40;;;;;;;1.67;0.90;;;;;;;;;;4975493;28;20198;-73
2021/08/30 02:53:46;;;;;;;1.77;0.90;;;;;;;;;;4956512;29;20179;-72
2021/08/30 02:56:50;;;;;;;1.57;0.60;;;;;;;;;;4955811;28;20540;-73
2021/08/30 02:59:55;;;;;;;1.03;0.50;;;;;;;;;;4956933;28;20176;-73
2021/08/30 03:03:00;;;;;;;1.50;0.50;;;;;;;;;;4956326;29;20191;-73
2021/08/30 03:06:05;;;;;;;0.70;0.50;;;;;;;;;;4922397;28;1081713;-73
2021/08/30 03:09:09;;;;;;;0.70;0.57;;;;;;;;;;4976307;28;20198;-73
2021/08/30 03:12:15;;;;;;;1.27;0.50;;;;;;;;;;4976195;28;20230;-73
2021/08/30 03:15:22;;;;;;;1.43;0.53;;;;;;;;;;4976546;28;20183;-73
2021/08/30 03:18:26;;;;;;;1.13;0.50;;;;;;;;;;4975888;28;20171;-73
2021/08/30 03:21:31;;;;;;;0.80;0.60;;;;;;;;;;4975712;28;20222;-73
2021/08/30 03:24:37;;;;;;;0.77;0.50;;;;;;;;;;4976543;28;20207;-73
2021/08/30 03:27:43;;;;;;;2.53;0.73;;;;;;;;;;4957097;29;20548;-72
2021/08/30 03:30:51;;;;;;;1.73;0.50;;;;;;;;;;4965329;28;20222;-73
2021/08/30 03:33:56;;;;;;;2.13;0.80;;;;;;;;;;4966683;28;20187;-72
2021/08/30 03:37:02;;;;;;;0.87;0.67;;;;;;;;;;4975220;28;20203;-72
2021/08/30 03:40:08;;;;;;;3.30;0.80;;;;;;;;;;4974464;28;20186;-73
2021/08/30 03:43:12;;;;;;;0.77;0.53;;;;;;;;;;4976277;28;20186;-72
2021/08/30 03:46:17;;;;;;;0.73;0.70;;;;;;;;;;4975811;28;20642;-72
2021/08/30 03:49:24;;;;;;;1.53;1.10;;;;;;;;;;4956809;29;20192;-72
2021/08/30 03:52:30;;;;;;;2.77;1.10;;;;;;;;;;4970093;28;20547;-72
2021/08/30 03:55:35;;;;;;;2.43;1.27;;;;;;;;;;4975424;28;20202;-72
2021/08/30 03:58:42;;;;;;;1.57;1.40;;;;;;;;;;4975367;28;20191;-72
2021/08/30 04:01:50;;;;;;;2.27;1.70;;;;;;;;;;4974799;28;20218;-72
2021/08/30 04:04:55;;;;;;;1.57;1.47;;;;;;;;;;4980641;23;20210;-76
2021/08/30 04:08:00;;;;;;;3.03;2.10;;;;;;;;;;4953948;28;20223;-77
2021/08/30 04:11:09;;;;;;;2.03;1.83;;;;;;;;;;4933671;29;20223;-76
2021/08/30 04:14:14;;;;;;;2.87;2.40;;;;;;;;;;4943632;29;20196;-77
2021/08/30 04:17:18;;;;;;;2.17;1.97;;;;;;;;;;4955339;29;20199;-76
2021/08/30 04:20:22;;;;;;;2.60;1.87;;;;;;;;;;4944258;29;20544;-77
2021/08/30 04:23:26;;;;;;;4.13;1.90;;;;;;;;;;4953463;29;20192;-77
2021/08/30 04:26:30;;;;;;;2.43;1.77;;;;;;;;;;4944199;29;20196;-77
2021/08/30 04:29:35;;;;;;;6.03;1.80;;;;;;;;;;4954942;29;20192;-77
2021/08/30 04:32:40;;;;;;;6.97;1.80;;;;;;;;;;4954678;29;20566;-77
2021/08/30 04:35:44;;;;;;;2.57;1.70;;;;;;;;;;4955108;29;20662;-76
2021/08/30 04:38:48;;;;;;;3.27;1.60;;;;;;;;;;4954280;29;20203;-76
2021/08/30 04:41:52;;;;;;;2.70;1.40;;;;;;;;;;4955296;29;20226;-76
2021/08/30 04:44:56;;;;;;;3.20;1.37;;;;;;;;;;4954344;29;20194;-77
2021/08/30 04:48:00;;;;;;;3.83;1.20;;;;;;;;;;4955098;29;20219;-77
2021/08/30 04:51:05;;;;;;;1.53;1.07;;;;;;;;;;4955009;29;20218;-77
2021/08/30 04:54:09;;;;;;;2.23;0.90;;;;;;;;;;4965319;28;20196;-77
2021/08/30 04:57:13;;;;;;;1.20;0.90;;;;;;;;;;4954663;29;20191;-77
2021/08/30 05:00:17;;;;;;;3.33;0.90;;;;;;;;;;4965288;28;20194;-77
2021/08/30 05:03:21;;;;;;;1.77;0.70;;;;;;;;;;4954377;29;20516;-76
2021/08/30 05:06:25;;;;;;;3.87;0.80;;;;;;;;;;4953974;28;20211;-76
2021/08/30 05:09:30;;;;;;;3.23;0.73;;;;;;;;;;4954322;29;20207;-76
2021/08/30 05:12:34;;;;;;;3.07;0.67;;;;;;;;;;4965823;28;20223;-76
2021/08/30 05:15:38;;;;;;;2.40;0.80;;;;;;;;;;4955175;29;20199;-76
2021/08/30 05:18:41;;;;;;;0.90;0.57;;;;;;;;;;4955648;28;20183;-76
2021/08/30 05:21:46;;;;;;;1.63;0.70;;;;;;;;;;4958982;29;20230;-76
2021/08/30 05:24:50;;;;;;;0.70;0.60;;;;;;;;;;4969114;28;20199;-75
2021/08/30 05:27:54;;;;;;;0.63;0.40;;;;;;;;;;4959004;29;20219;-75
2021/08/30 05:30:59;;;;;;;0.60;0.50;;;;;;;;;;4958206;29;20226;-75
2021/08/30 05:34:03;;;;;;;2.33;0.80;;;;;;;;;;4940115;29;20181;-76
2021/08/30 05:37:08;;;;;;;1.93;0.80;;;;;;;;;;4967587;28;20634;-76
2021/08/30 05:40:12;;;;;;;3.73;0.50;;;;;;;;;;4958140;29;20187;-75
2021/08/30 05:43:17;;;;;;;2.23;0.67;;;;;;;;;;4958084;29;20558;-75
2021/08/30 05:46:21;;;;;;;1.00;0.50;;;;;;;;;;4946644;29;20196;-74
2021/08/30 05:49:25;;;;;;;0.40;0.37;;;;;;;;;;4958471;29;20207;-75
2021/08/30 05:52:29;;;;;;;1.43;0.47;;;;;;;;;;4958197;29;20219;-75
2021/08/30 05:55:33;;;;;;;0.80;0.50;;;;;;;;;;4958244;29;20199;-74
2021/08/30 05:58:37;;;;;;;0.93;0.40;;;;;;;;;;4939763;29;20185;-74
2021/08/30 06:01:41;;;;;;;1.97;0.40;;;;;;;;;;4954926;29;20219;-74
2021/08/30 06:04:45;;;;;;;1.63;0.80;;;;;;;;;;4957382;29;20527;-74
2021/08/30 06:07:49;;;;;;;2.90;1.40;;;;;;;;;;4957457;29;20196;-74
2021/08/30 06:10:56;;;;;;;2.40;0.90;;;;;;;;;;4957208;29;20222;-74
2021/08/30 06:14:00;;;;;;;2.03;0.83;;;;;;;;;;4946215;29;20536;-74
2021/08/30 06:17:04;;;;;;;0.77;0.70;;;;;;;;;;4958391;29;20523;-74
2021/08/30 06:20:09;;;;;;;0.80;0.80;;;;;;;;;;4957150;29;20187;-74
2021/08/30 06:23:13;;;;;;;0.80;0.80;;;;;;;;;;4967876;28;20187;-74
2021/08/30 06:26:17;;;;;;;1.30;1.10;;;;;;;;;;4958053;29;20650;-74
2021/08/30 06:29:22;;;;;;;1.80;1.70;;;;;;;;;;4956956;28;20227;-74
2021/08/30 06:32:26;;;;;;;2.10;1.90;;;;;;;;;;4956656;29;20215;-74
2021/08/30 06:35:30;;;;;;;3.17;2.40;;;;;;;;;;4957092;29;20179;-75
2021/08/30 06:38:34;;;;;;;2.10;1.90;;;;;;;;;;4957353;29;20183;-74
2021/08/30 06:41:38;;;;;;;2.10;1.80;;;;;;;;;;4957442;29;20219;-74
2021/08/30 06:44:42;;;;;;;1.70;1.60;;;;;;;;;;4949861;29;20199;-74
2021/08/30 06:47:46;;;;;;;1.60;1.50;;;;;;;;;;4956416;29;20604;-74
2021/08/30 06:50:51;;;;;;;4.20;2.03;;;;;;;;;;4957354;28;20227;-74
2021/08/30 06:53:55;;;;;;;2.93;2.03;;;;;;;;;;4945936;29;20643;-73
2021/08/30 06:56:59;;;;;;;1.77;1.67;;;;;;;;;;4941671;29;20192;-74
2021/08/30 07:00:04;;;;;;;1.97;1.77;;;;;;;;;;4967618;28;20187;-74
2021/08/30 07:03:10;;;;;;;2.93;1.90;;;;;;;;;;4966694;28;20187;-74
2021/08/30 07:06:14;;;;;;;3.10;1.80;;;;;;;;;;4967354;28;20211;-75
2021/08/30 07:09:18;;;;;;;3.10;1.80;;;;;;;;;;4956493;29;20211;-74
2021/08/30 07:12:24;;;;;;;1.40;1.20;;;;;;;;;;4956692;29;20223;-75
2021/08/30 07:15:28;;;;;;;1.23;0.90;;;;;;;;;;4938325;29;20184;-75
2021/08/30 07:18:32;;;;;;;1.10;0.93;;;;;;;;;;4948784;29;20195;-74
2021/08/30 07:21:36;;;;;;;1.63;0.77;;;;;;;;;;4939562;29;20552;-75
2021/08/30 07:24:40;;;;;;;1.07;0.80;;;;;;;;;;4956741;29;20191;-74
2021/08/30 07:27:45;;;;;;;1.23;0.90;;;;;;;;;;4945441;29;20179;-75
2021/08/30 07:30:49;;;;;;;3.20;0.67;;;;;;;;;;4966446;28;20214;-74
2021/08/30 07:33:53;;;;;;;2.67;0.80;;;;;;;;;;4939048;29;20184;-74
2021/08/30 07:36:57;;;;;;;1.53;1.10;;;;;;;;;;4955733;29;20203;-74
2021/08/30 07:40:02;;;;;;;0.97;0.73;;;;;;;;;;4955905;29;20195;-75
2021/08/30 07:43:06;;;;;;;2.60;0.90;;;;;;;;;;4941510;29;20184;-75
2021/08/30 07:46:11;;;;;;;0.80;0.77;;;;;;;;;;4955417;29;20188;-74
2021/08/30 07:49:15;;;;;;;2.87;0.70;;;;;;;;;;4956378;29;20204;-74
2021/08/30 07:52:20;;;;;;;0.60;0.60;;;;;;;;;;4955326;29;20219;-74
2021/08/30 07:55:24;;;;;;;1.53;0.80;;;;;;;;;;4939325;29;20176;-74
2021/08/30 07:58:29;;;;;;;1.10;1.00;;;;;;;;;;4947177;29;20191;-74
2021/08/30 08:01:33;;;;;;;1.60;0.73;;;;;;;;;;4955499;29;20219;-74
2021/08/30 08:04:37;;;;;;;0.77;0.77;;;;;;;;;;4956302;29;20184;-75
2021/08/30 08:07:41;;;;;;;1.50;0.90;;;;;;;;;;4954918;29;20654;-74
2021/08/30 08:10:45;;;;;;;0.93;0.87;;;;;;;;;;4956132;29;20219;-75
2021/08/30 08:13:50;;;;;;;3.77;1.63;;;;;;;;;;4955912;29;20195;-76
2021/08/30 08:16:54;;;;;;;1.17;1.00;;;;;;;;;;4944063;29;20211;-74
2021/08/30 08:19:58;;;;;;;2.30;0.90;;;;;;;;;;4944483;29;20666;-75
2021/08/30 08:23:04;;;;;;;1.50;0.90;;;;;;;;;;4955485;29;20638;-75
2021/08/30 08:26:07;;;;;;;1.30;1.10;;;;;;;;;;4955616;29;20207;-76
2021/08/30 08:29:13;;;;;;;1.67;0.97;;;;;;;;;;4949876;29;20224;-75
2021/08/30 08:32:17;;;;;;;1.30;1.10;;;;;;;;;;4955797;29;20218;-75
2021/08/30 08:35:21;;;;;;;1.37;1.10;;;;;;;;;;4954843;29;20195;-75
2021/08/30 08:38:25;;;;;;;1.40;1.30;;;;;;;;;;4936243;29;20180;-75
2021/08/30 08:41:29;;;;;;;0.83;0.83;;;;;;;;;;4945705;29;20231;-75
2021/08/30 08:44:33;;;;;;;1.93;0.90;;;;;;;;;;4939254;29;20191;-74
2021/08/30 08:47:40;;;;;;;0.73;0.70;;;;;;;;;;4947208;29;20188;-75
2021/08/30 08:50:44;;;;;;;1.20;0.70;;;;;;;;;;4935285;29;20231;-75
2021/08/30 08:53:48;;;;;;;0.87;0.77;;;;;;;;;;4936653;29;20184;-75
2021/08/30 08:56:52;;;;;;;0.60;0.40;;;;;;;;;;4955325;29;20207;-75
2021/08/30 09:00:04;;;;;;;1.20;0.60;;;;;;;;;;4954568;29;20199;-75
2021/08/30 09:03:16;;;;;;;1.30;0.40;;;;;;;;;;4955187;29;20187;-76
2021/08/30 09:06:30;;;;;;;1.43;0.40;;;;;;;;;;4954250;29;20214;-75
2021/08/30 09:09:36;;;;;;;0.40;0.40;;;;;;;;;;4951607;28;20212;-74
2021/08/30 09:12:42;;;;;;;0.93;0.40;;;;;;;;;;4955231;29;20227;-74
2021/08/30 09:15:46;;;;;;;0.40;0.40;;;;;;;;;;4954080;29;20203;-74
2021/08/30 09:18:50;;;;;;;1.43;0.50;;;;;;;;;;4952577;29;20207;-74
2021/08/30 09:21:54;;;;;;;0.70;0.50;;;;;;;;;;4954644;28;20231;-74
2021/08/30 09:25:08;;;;;;;1.17;0.60;;;;;;;;;;4955144;29;20203;-74
2021/08/30 09:28:12;;;;;;;1.33;0.50;;;;;;;;;;4950402;29;20192;-74
2021/08/30 09:31:16;;;;;;;0.63;0.43;;;;;;;;;;4955278;29;20211;-75
2021/08/30 09:34:20;;;;;;;0.30;0.30;;;;;;;;;;4954930;29;20195;-74
2021/08/30 09:37:26;;;;;;;0.70;0.50;;;;;;;;;;4954238;29;20199;-74
2021/08/30 09:40:30;;;;;;;0.70;0.50;;;;;;;;;;4954916;29;20203;-74
2021/08/30 09:43:34;;;;;;;0.97;0.70;;;;;;;;;;4935809;29;20188;-74
2021/08/30 09:46:38;;;;;;;1.60;0.97;;;;;;;;;;4938542;29;20180;-74
2021/08/30 09:49:51;;;;;;;1.40;0.90;;;;;;;;;;4954331;29;20211;-74
2021/08/30 09:52:56;;;;;;;0.70;0.70;;;;;;;;;;4955011;29;20658;-75
2021/08/30 09:56:00;;;;;;;0.90;0.77;;;;;;;;;;4935201;29;20185;-74
2021/08/30 09:59:07;;;;;;;0.93;0.80;;;;;;;;;;4936127;29;20177;-74
2021/08/30 10:02:17;;;;;;;0.70;0.70;;;;;;;;;;4935822;29;20224;-75
2021/08/30 10:05:24;;;;;;;1.10;0.80;;;;;;;;;;4925657;29;20224;-74
2021/08/30 10:08:29;;;;;;;1.30;1.17;;;;;;;;;;4964719;28;20195;-74
2021/08/30 10:11:33;;;;;;;1.23;1.13;;;;;;;;;;4957417;29;20227;-74
2021/08/30 10:14:38;;;;;;;0.90;0.90;;;;;;;;;;4957249;29;20191;-74
2021/08/30 10:17:47;;;;;;;3.40;1.10;;;;;;;;;;4957903;29;20552;-74
2021/08/30 10:20:54;;;;;;;0.90;0.90;;;;;;;;;;4958372;29;20219;-74
2021/08/30 10:23:58;;;;;;;1.17;1.00;;;;;;;;;;4963881;28;20667;-74
2021/08/30 10:27:03;;;;;;;0.93;0.83;;;;;;;;;;4958009;29;20647;-73
2021/08/30 10:30:10;;;;;;;0.87;0.87;;;;;;;;;;4957352;29;20567;-75
2021/08/30 10:33:14;;;;;;;0.57;0.57;;;;;;;;;;4957024;29;20524;-73
2021/08/30 10:36:21;;;;;;;0.63;0.63;;;;;;;;;;4956958;29;20211;-74
2021/08/30 10:39:42;;;;;;;0.70;0.70;;;;;;;;;;4941751;29;20203;-74
2021/08/30 10:43:01;;;;;;;1.43;0.50;;;;;;;;;;4957536;29;20564;-75
2021/08/30 10:46:14;;;;;;;1.00;0.80;;;;;;;;;;4939864;29;20200;-73
2021/08/30 10:49:33;;;;;;;0.87;0.60;;;;;;;;;;4983009;23;20231;-77
2021/08/30 10:52:39;;;;;;;0.70;0.60;;;;;;;;;;4967994;28;20559;-77
2021/08/30 10:55:48;;;;;;;1.00;0.70;;;;;;;;;;4958091;29;20183;-77
2021/08/30 10:58:53;;;;;;;1.90;0.57;;;;;;;;;;4957615;28;20527;-77
2021/08/30 11:02:01;;;;;;;0.60;0.60;;;;;;;;;;4976549;28;20227;-81
2021/08/30 11:05:07;;;;;;;1.80;0.73;;;;;;;;;;4956409;29;20207;-78
2021/08/30 11:08:11;;;;;;;0.60;0.60;;;;;;;;;;4971702;28;20885;-77
2021/08/30 11:11:20;;;;;;;0.87;0.70;;;;;;;;;;4973398;28;20229;-77
2021/08/30 11:14:24;;;;;;;1.13;0.83;;;;;;;;;;4972693;28;20669;-76
2021/08/30 11:17:31;;;;;;;0.70;0.70;;;;;;;;;;4974851;28;20186;-77
2021/08/30 11:20:35;;;;;;;1.73;0.90;;;;;;;;;;4972477;28;20187;-78
2021/08/30 11:23:39;;;;;;;1.07;0.60;;;;;;;;;;4972705;28;20202;-77
2021/08/30 11:26:43;;;;;;;1.23;0.63;;;;;;;;;;4974084;28;20194;-76
2021/08/30 11:29:56;;;;;;;1.40;0.53;;;;;;;;;;4973868;28;20686;-77
2021/08/30 11:33:00;;;;;;;0.87;0.40;;;;;;;;;;4973459;28;20543;-77
2021/08/30 11:36:09;;;;;;;0.67;0.50;;;;;;;;;;4972895;28;20194;-77
2021/08/30 11:39:16;;;;;;;1.60;0.60;;;;;;;;;;4973136;28;20203;-77
2021/08/30 11:42:25;;;;;;;0.60;0.50;;;;;;;;;;4973109;28;20218;-77
2021/08/30 11:45:29;;;;;;;0.70;0.50;;;;;;;;;;4973560;28;20199;-77
2021/08/30 11:48:33;;;;;;;0.50;0.50;;;;;;;;;;4973006;28;20206;-77
2021/08/30 11:51:42;;;;;;;0.40;0.40;;;;;;;;;;4972735;28;20226;-77
2021/08/30 11:55:04;;;;;;;0.87;0.40;;;;;;;;;;4972899;28;20195;-78
2021/08/30 11:58:09;;;;;;;0.50;0.50;;;;;;;;;;4966064;28;20531;-77
2021/08/30 12:01:18;;;;;;;1.50;0.50;;;;;;;;;;4973344;28;20223;-77
2021/08/30 12:04:26;;;;;;;0.50;0.50;;;;;;;;;;4975339;28;20190;-77
2021/08/30 12:07:33;;;;;;;0.57;0.43;;;;;;;;;;4974735;28;20192;-77
2021/08/30 12:10:38;;;;;;;2.07;0.70;;;;;;;;;;4975583;28;20209;-79
2021/08/30 12:16:58;;;;;;;2.70;0.93;;;;;;;;;;4978243;28;20188;-77
2021/08/30 12:20:36;;;;;;;1.27;0.70;;;;;;;;;;4977308;28;20198;-77
2021/08/30 12:23:40;;;;;;;1.00;0.60;;;;;;;;;;4979195;28;20190;-81
2021/08/30 12:26:47;;;;;;;0.40;0.40;;;;;;;;;;4956921;28;20181;-77
2021/08/30 12:29:52;;;;;;;1.00;0.57;;;;;;;;;;4956457;28;20204;-79
2021/08/30 12:32:59;;;;;;;0.40;0.40;;;;;;;;;;4979176;28;20194;-78
2021/08/30 12:36:04;;;;;;;0.70;0.70;;;;;;;;;;4978201;28;20190;-78
2021/08/30 12:39:08;;;;;;;1.47;0.77;;;;;;;;;;4977456;28;20639;-79
2021/08/30 12:42:12;;;;;;;1.73;0.50;;;;;;;;;;4978212;28;20213;-77
2021/08/30 12:45:16;;;;;;;0.57;0.50;;;;;;;;;;4978053;28;20201;-80
2021/08/30 12:48:21;;;;;;;2.57;0.53;;;;;;;;;;4977274;28;20216;-79
2021/08/30 12:51:26;;;;;;;1.23;0.60;;;;;;;;;;4954375;28;20231;-80
2021/08/30 12:54:30;;;;;;;1.30;0.70;;;;;;;;;;4954958;28;20190;-79
2021/08/30 12:57:35;;;;;;;3.43;1.40;;;;;;;;;;4965697;28;20205;-81
2021/08/30 13:00:39;;;;;;;1.73;0.90;;;;;;;;;;4966660;28;20199;-80
2021/08/30 13:03:44;;;;;;;22.30;1.90;;;;;;;;;;4957693;28;20187;-79
2021/08/30 13:06:48;;;;;;;1.57;0.80;;;;;;;;;;4966911;28;20198;-79
2021/08/30 13:09:54;;;;;;;3.00;0.70;;;;;;;;;;4966430;28;20207;-82
2021/08/30 13:12:58;;;;;;;0.67;0.67;;;;;;;;;;4964670;28;20191;-79
2021/08/30 13:16:03;;;;;;;1.37;0.70;;;;;;;;;;4977297;28;20535;-82
2021/08/30 13:19:07;;;;;;;0.70;0.70;;;;;;;;;;4954520;28;20186;-82
2021/08/30 13:22:11;;;;;;;0.67;0.57;;;;;;;;;;4952988;28;20214;-80
2021/08/30 13:25:17;;;;;;;0.50;0.50;;;;;;;;;;4954172;28;20303;-82
2021/08/30 13:28:22;;;;;;;0.60;0.50;;;;;;;;;;4977105;28;20187;-84
2021/08/30 13:31:26;;;;;;;0.50;0.50;;;;;;;;;;4965525;28;20716;-80
2021/08/30 13:34:30;;;;;;;1.50;0.57;;;;;;;;;;4964199;28;20213;-82
2021/08/30 13:37:35;;;;;;;0.63;0.63;;;;;;;;;;4953815;28;20187;-82
2021/08/30 13:40:39;;;;;;;4.03;0.50;;;;;;;;;;4967458;28;20178;-83
2021/08/30 13:43:43;;;;;;;3.07;0.40;;;;;;;;;;4980288;28;20183;-81
2021/08/30 13:46:47;;;;;;;1.23;0.40;;;;;;;;;;4956184;28;20183;-81
2021/08/30 13:49:55;;;;;;;0.77;0.50;;;;;;;;;;4968593;28;20683;-80
2021/08/30 13:52:59;;;;;;;2.03;0.50;;;;;;;;;;4967182;28;20182;-80
2021/08/30 13:56:03;;;;;;;2.35;0.50;;;;;;;;;;4966790;28;20188;-82
2021/08/30 13:59:08;;;;;;;1.60;0.45;;;;;;;;;;4977029;28;20207;-81
2021/08/30 14:02:13;;;;;;;1.35;0.47;;;;;;;;;;4977372;28;20206;-82
2021/08/30 14:05:17;;;;;;;0.30;0.30;;;;;;;;;;4955415;28;20195;-81
2021/08/30 14:08:21;;;;;;;0.80;0.40;;;;;;;;;;4978974;28;20199;-82
2021/08/30 14:11:25;;;;;;;1.10;0.43;;;;;;;;;;4966245;28;20830;-81
2021/08/30 14:14:30;;;;;;;0.40;0.40;;;;;;;;;;4978470;28;20186;-81
2021/08/30 14:17:35;;;;;;;0.97;0.40;;;;;;;;;;4967618;28;20651;-81
2021/08/30 14:20:39;;;;;;;3.03;0.30;;;;;;;;;;4967061;28;20189;-79
2021/08/30 14:23:43;;;;;;;2.10;0.40;;;;;;;;;;4970680;28;20204;-78
2021/08/30 14:26:48;;;;;;;1.03;0.50;;;;;;;;;;4959276;28;20672;-78
2021/08/30 14:29:52;;;;;;;0.70;0.50;;;;;;;;;;4971887;28;20197;-80
2021/08/30 14:32:56;;;;;;;0.43;0.40;;;;;;;;;;4955621;28;20193;-83
2021/08/30 14:36:00;;;;;;;0.50;0.40;;;;;;;;;;4968206;28;20184;-82
2021/08/30 14:39:04;;;;;;;0.40;0.40;;;;;;;;;;4967956;28;20193;-82
2021/08/30 14:42:08;;;;;;;1.27;0.50;;;;;;;;;;4975842;28;20213;-83
2021/08/30 14:45:14;;;;;;;0.30;0.30;;;;;;;;;;4949086;29;20209;-82
2021/08/30 14:48:19;;;;;;;2.23;0.40;;;;;;;;;;4938494;29;20203;-82
2021/08/30 14:51:24;;;;;;;0.40;0.40;;;;;;;;;;4954821;28;20222;-80
2021/08/30 14:54:28;;;;;;;3.23;0.37;;;;;;;;;;4971005;28;20196;-81
2021/08/30 14:57:32;;;;;;;0.33;0.33;;;;;;;;;;4982449;28;20206;-80
2021/08/30 15:00:40;;;;;;;0.30;0.30;;;;;;;;;;4982373;28;20205;-82
2021/08/30 15:03:17;;;;;;;0.73;0.30;;;;;;;;;;5077574;28;20781;-82
2021/08/30 15:06:22;;;;;;;0.23;0.20;;;;;;;;;;5065602;28;20691;-81
2021/08/30 15:09:26;;;;;;;0.70;0.40;;;;;;;;;;5065636;28;20189;-83
2021/08/30 15:12:35;;;;;;;0.30;0.30;;;;;;;;;;5064754;28;20219;-81
2021/08/30 15:15:39;;;;;;;0.57;0.30;;;;;;;;;;5065282;28;20181;-82
2021/08/30 15:18:44;;;;;;;3.37;0.50;;;;;;;;;;5058893;28;20193;-81
2021/08/30 15:21:48;;;;;;;0.57;0.30;;;;;;;;;;5068339;28;20219;-83
2021/08/30 15:24:53;;;;;;;3.83;0.60;;;;;;;;;;5052026;28;20197;-80
2021/08/30 15:27:57;;;;;;;1.70;1.30;;;;;;;;;;5066082;28;20181;-79
2021/08/30 15:31:01;;;;;;;2.30;0.80;;;;;;;;;;5069541;28;20218;-79
2021/08/30 15:34:06;;;;;;;0.40;0.40;;;;;;;;;;5055062;28;20198;-80
2021/08/30 15:37:10;;;;;;;0.50;0.40;;;;;;;;;;5054803;28;20638;-78
2021/08/30 15:40:14;;;;;;;0.57;0.40;;;;;;;;;;5082314;28;20201;-80
2021/08/30 15:43:19;;;;;;;1.13;0.50;;;;;;;;;;5074725;28;20205;-79
2021/08/30 15:46:24;;;;;;;0.67;0.40;;;;;;;;;;5068442;28;20208;-79
2021/08/30 15:49:28;;;;;;;0.80;0.40;;;;;;;;;;5054516;28;20184;-79
2021/08/30 15:52:32;;;;;;;0.40;0.37;;;;;;;;;;5073382;28;20219;-79
2021/08/30 15:55:36;;;;;;;2.57;0.50;;;;;;;;;;5042268;28;20176;-80
2021/08/30 15:58:40;;;;;;;0.67;0.50;;;;;;;;;;5055216;28;20229;-79
2021/08/30 16:01:44;;;;;;;2.40;0.60;;;;;;;;;;5066214;28;20215;-80
2021/08/30 16:04:49;;;;;;;0.50;0.50;;;;;;;;;;5070802;28;20652;-79
2021/08/30 16:07:53;;;;;;;1.23;0.60;;;;;;;;;;5070796;28;20195;-78
2021/08/30 16:10:58;;;;;;;2.77;0.83;;;;;;;;;;5058793;28;20224;-78
2021/08/30 16:14:02;;;;;;;0.60;0.60;;;;;;;;;;5048283;28;20176;-81
2021/08/30 16:17:07;;;;;;;1.53;0.57;;;;;;;;;;5046652;28;20192;-85
2021/08/30 16:20:11;;;;;;;1.70;0.80;;;;;;;;;;5024023;28;20197;-84
2021/08/30 16:23:16;;;;;;;0.67;0.53;;;;;;;;;;5013011;28;20204;-87
2021/08/30 16:26:21;;;;;;;1.13;0.50;;;;;;;;;;5013233;28;20647;-87
2021/08/30 16:29:26;;;;;;;0.67;0.50;;;;;;;;;;5019854;28;20642;-86
2021/08/30 16:32:31;;;;;;;0.60;0.60;;;;;;;;;;5032737;28;20215;-86
2021/08/30 16:35:34;;;;;;;0.70;0.60;;;;;;;;;;5023934;28;20188;-86
2021/08/30 16:38:38;;;;;;;1.00;0.77;;;;;;;;;;5021318;28;20551;-86
2021/08/30 16:41:43;;;;;;;2.33;0.90;;;;;;;;;;5034873;28;20212;-86
2021/08/30 16:44:48;;;;;;;0.70;0.70;;;;;;;;;;5013261;28;20655;-87
2021/08/30 16:47:52;;;;;;;2.20;2.00;;;;;;;;;;5013082;28;20176;-86
2021/08/30 16:50:56;;;;;;;1.40;1.10;;;;;;;;;;5012460;28;20220;-86
2021/08/30 16:54:01;;;;;;;2.03;1.20;;;;;;;;;;5029956;28;20192;-88
2021/08/30 16:57:05;;;;;;;1.00;0.90;;;;;;;;;;5022119;28;20185;-87
2021/08/30 17:00:12;;;;;;;2.57;1.00;;;;;;;;;;5019583;28;20831;-87
2021/08/30 17:03:20;;;;;;;0.90;0.70;;;;;;;;;;5014669;28;20204;-87
2021/08/30 17:06:24;;;;;;;1.23;1.00;;;;;;;;;;5024325;28;20184;-86
2021/08/30 17:09:29;;;;;;;1.03;0.90;;;;;;;;;;5058990;28;20188;-86
2021/08/30 17:12:34;;;;;;;2.20;1.10;;;;;;;;;;5024286;28;20221;-86
2021/08/30 17:15:39;;;;;;;0.90;0.77;;;;;;;;;;5022363;28;20188;-83
2021/08/30 17:18:43;;;;;;;1.60;1.00;;;;;;;;;;5020371;28;20184;-84
2021/08/30 17:21:47;;;;;;;1.47;0.80;;;;;;;;;;5024698;28;20224;-85
2021/08/30 17:24:51;;;;;;;0.93;0.70;;;;;;;;;;5021021;28;20209;-86
2021/08/30 17:27:55;;;;;;;1.73;1.63;;;;;;;;;;5031387;28;20197;-81
2021/08/30 17:31:00;;;;;;;2.20;2.00;;;;;;;;;;5024150;28;20224;-81
2021/08/30 17:34:05;;;;;;;2.07;1.93;;;;;;;;;;5021263;28;20188;-84
2021/08/30 17:37:10;;;;;;;2.17;0.97;;;;;;;;;;5020355;28;20192;-81
2021/08/30 17:40:14;;;;;;;1.10;1.00;;;;;;;;;;5053771;28;20184;-81
2021/08/30 17:43:18;;;;;;;1.30;1.20;;;;;;;;;;5028878;28;20552;-80
2021/08/30 17:46:23;;;;;;;1.10;1.00;;;;;;;;;;5023387;28;20964;-81
2021/08/30 17:49:30;;;;;;;2.17;1.10;;;;;;;;;;5022973;28;20189;-80
2021/08/30 17:52:34;;;;;;;2.77;1.00;;;;;;;;;;5039725;28;20215;-81
2021/08/30 17:55:38;;;;;;;2.53;0.90;;;;;;;;;;5042025;28;20639;-80
2021/08/30 17:58:43;;;;;;;1.30;0.83;;;;;;;;;;5037866;28;20185;-81
2021/08/30 18:01:48;;;;;;;0.90;0.77;;;;;;;;;;5032293;28;20227;-82
2021/08/30 18:04:51;;;;;;;1.37;0.67;;;;;;;;;;5040734;28;20192;-80
2021/08/30 18:07:55;;;;;;;3.50;0.80;;;;;;;;;;5035389;28;20189;-79
2021/08/30 18:11:00;;;;;;;4.70;0.80;;;;;;;;;;5035162;28;20228;-80
2021/08/30 18:14:04;;;;;;;1.83;0.70;;;;;;;;;;5023585;28;20193;-79
2021/08/30 18:17:08;;;;;;;2.97;0.97;;;;;;;;;;5049849;28;20200;-79
2021/08/30 18:20:12;;;;;;;2.40;0.70;;;;;;;;;;5033666;28;20188;-79
2021/08/30 18:23:16;;;;;;;0.60;0.60;;;;;;;;;;5046048;28;20207;-81
2021/08/30 18:26:21;;;;;;;2.10;0.60;;;;;;;;;;5043442;28;20203;-80
2021/08/30 18:29:25;;;;;;;1.07;0.70;;;;;;;;;;5048175;28;20520;-77
2021/08/30 18:32:29;;;;;;;3.10;0.63;;;;;;;;;;5027510;28;20211;-79
2021/08/30 18:35:33;;;;;;;2.00;0.70;;;;;;;;;;5033408;28;20200;-80